Time;durP1;ratioP1;P1;durP2;ratioP2;P2;SDS_P1;SDS_P2;PMS_P1;PMS_P2;Temp;Humidity;BMP_temperature;BMP_pressure;BME280_temperature;BME280_humidity;BME280_pressure;Samples;Min_cycle;Max_cycle;Signal;HPM_P1;HPM_P2
2023/04/11 00:01:28;;;;;;;9.23;1.95;;;10.10;99.90;;;;;;5049638;28;20131;-89
2023/04/11 00:03:55;;;;;;;9.25;2.00;;;10.00;99.90;;;;;;5034531;28;20055;-89
2023/04/11 00:06:22;;;;;;;17.88;3.00;;;9.90;99.90;;;;;;5028938;28;20035;-88
2023/04/11 00:08:48;;;;;;;14.95;2.70;;;9.90;99.90;;;;;;5059854;28;20132;-90
2023/04/11 00:11:14;;;;;;;10.93;2.47;;;10.00;99.90;;;;;;5034087;28;20096;-88
2023/04/11 00:13:41;;;;;;;23.30;3.47;;;9.90;99.90;;;;;;5033885;28;20069;-89
2023/04/11 00:16:08;;;;;;;17.90;2.45;;;9.80;99.90;;;;;;5049840;28;20040;-89
2023/04/11 00:18:36;;;;;;;18.80;3.50;;;9.80;99.90;;;;;;5032047;28;20070;-90
2023/04/11 00:21:07;;;;;;;13.48;3.05;;;9.80;99.90;;;;;;5064868;28;20040;-89
2023/04/11 00:23:32;;;;;;;20.08;2.67;;;9.80;99.90;;;;;;5029703;28;20059;-87
2023/04/11 00:25:58;;;;;;;23.35;3.00;;;9.80;99.90;;;;;;5049676;28;20059;-89
2023/04/11 00:28:24;;;;;;;17.05;2.33;;;9.80;99.90;;;;;;5028938;28;20111;-89
2023/04/11 00:30:49;;;;;;;16.13;2.28;;;9.80;99.90;;;;;;5043582;28;20043;-89
2023/04/11 00:33:15;;;;;;;18.10;2.80;;;9.70;99.90;;;;;;5063718;28;20427;-88
2023/04/11 00:35:41;;;;;;;16.05;2.08;;;9.70;99.90;;;;;;5034201;28;20033;-89
2023/04/11 00:38:07;;;;;;;20.08;2.67;;;9.60;99.90;;;;;;5028260;28;20024;-89
2023/04/11 00:40:33;;;;;;;15.07;3.15;;;9.60;99.90;;;;;;5030241;28;20094;-89
2023/04/11 00:42:58;;;;;;;18.50;2.08;;;9.60;99.90;;;;;;5030925;28;20047;-89
2023/04/11 00:45:24;;;;;;;17.48;2.00;;;9.50;99.90;;;;;;5051594;28;20094;-88
2023/04/11 00:47:50;;;;;;;17.95;3.08;;;9.50;99.90;;;;;;5039283;28;20036;-89
2023/04/11 00:50:17;;;;;;;18.65;2.53;;;9.50;99.90;;;;;;5040452;28;20017;-89
2023/04/11 00:52:46;;;;;;;22.15;2.53;;;9.50;99.90;;;;;;5062682;28;20482;-88
2023/04/11 00:55:13;;;;;;;14.87;2.07;;;9.40;99.90;;;;;;5062923;28;20597;-87
2023/04/11 00:57:40;;;;;;;12.30;1.85;;;9.40;99.90;;;;;;5048878;28;20500;-89
2023/04/11 01:00:09;;;;;;;17.52;3.03;;;9.30;99.90;;;;;;5032325;28;20389;-89
2023/04/11 01:02:36;;;;;;;20.63;2.17;;;9.30;99.90;;;;;;5052959;28;20055;-88
2023/04/11 01:05:03;;;;;;;18.83;2.40;;;9.30;99.90;;;;;;5043564;28;20507;-90
2023/04/11 01:07:30;;;;;;;17.73;2.50;;;9.30;99.90;;;;;;5054962;28;20035;-88
2023/04/11 01:09:57;;;;;;;25.77;2.78;;;9.30;99.90;;;;;;5043643;28;20040;-88
2023/04/11 01:12:24;;;;;;;19.60;3.60;;;9.30;99.90;;;;;;5037863;28;20025;-88
2023/04/11 01:14:50;;;;;;;21.70;2.50;;;9.20;99.90;;;;;;5036145;28;20037;-89
2023/04/11 01:17:16;;;;;;;21.23;3.00;;;9.10;99.90;;;;;;5037590;28;20043;-89
2023/04/11 01:19:42;;;;;;;18.27;2.65;;;9.20;99.90;;;;;;5031528;28;20397;-87
2023/04/11 01:22:10;;;;;;;20.85;2.15;;;9.10;99.90;;;;;;5064890;28;20044;-87
2023/04/11 01:24:35;;;;;;;20.83;2.60;;;9.00;99.90;;;;;;5033789;28;20025;-88
2023/04/11 01:27:02;;;;;;;19.85;2.60;;;9.00;99.90;;;;;;5034398;28;20068;-88
2023/04/11 01:29:28;;;;;;;17.08;2.65;;;9.00;99.90;;;;;;5034462;28;20043;-88
2023/04/11 01:31:53;;;;;;;19.08;2.13;;;9.00;99.90;;;;;;5045613;28;20419;-89
2023/04/11 01:34:21;;;;;;;18.80;2.65;;;9.00;99.90;;;;;;5047905;28;20025;-88
2023/04/11 01:36:47;;;;;;;16.38;1.90;;;9.00;99.90;;;;;;5054558;28;20447;-88
2023/04/11 01:39:13;;;;;;;25.15;2.88;;;9.00;99.90;;;;;;5067211;28;20025;-90
2023/04/11 01:41:40;;;;;;;19.35;2.10;;;9.00;99.90;;;;;;5051156;28;20150;-88
2023/04/11 01:44:06;;;;;;;23.65;2.90;;;9.00;99.90;;;;;;5031864;28;20120;-88
2023/04/11 01:46:32;;;;;;;28.25;2.75;;;9.10;99.90;;;;;;5030532;28;20119;-89
2023/04/11 01:49:00;;;;;;;26.83;3.67;;;9.00;99.90;;;;;;5033716;28;20112;-87
2023/04/11 01:51:29;;;;;;;23.65;2.65;;;9.00;99.90;;;;;;5047535;28;20025;-89
2023/04/11 01:53:55;;;;;;;20.65;2.50;;;8.90;99.90;;;;;;5031843;28;20039;-89
2023/04/11 01:56:21;;;;;;;22.45;2.83;;;8.80;99.90;;;;;;5037410;28;20123;-88
2023/04/11 01:58:46;;;;;;;21.17;2.60;;;8.80;99.90;;;;;;5053405;28;20048;-89
2023/04/11 02:01:17;;;;;;;22.15;2.05;;;8.70;99.90;;;;;;5037276;28;20120;-89
2023/04/11 02:03:42;;;;;;;17.48;1.70;;;8.60;99.90;;;;;;5036186;28;20069;-91
2023/04/11 02:06:08;;;;;;;23.17;2.25;;;8.70;99.90;;;;;;5031559;28;20364;-88
2023/04/11 02:08:34;;;;;;;23.92;3.25;;;8.60;99.90;;;;;;5033009;28;20372;-88
2023/04/11 02:10:59;;;;;;;27.90;2.33;;;8.70;99.90;;;;;;5050842;28;20025;-89
2023/04/11 02:13:25;;;;;;;19.13;2.55;;;8.60;99.90;;;;;;5031567;28;20020;-88
2023/04/11 02:15:50;;;;;;;22.58;2.17;;;8.60;99.90;;;;;;5034630;28;20036;-88
2023/04/11 02:18:17;;;;;;;20.90;2.38;;;8.70;99.90;;;;;;5035459;28;20108;-89
2023/04/11 02:20:42;;;;;;;19.70;2.20;;;8.50;99.90;;;;;;5049349;28;20044;-88
2023/04/11 02:23:08;;;;;;;19.65;2.45;;;8.50;99.90;;;;;;5052362;28;20047;-88
2023/04/11 02:25:33;;;;;;;22.85;1.80;;;8.60;99.90;;;;;;5034983;28;20055;-89
2023/04/11 02:27:59;;;;;;;18.17;2.15;;;8.60;99.90;;;;;;5064385;28;20103;-90
2023/04/11 02:30:25;;;;;;;22.17;1.85;;;8.50;99.90;;;;;;5061255;28;20021;-88
2023/04/11 02:32:51;;;;;;;16.33;1.42;;;8.50;99.90;;;;;;5066500;28;20370;-88
2023/04/11 02:35:17;;;;;;;17.70;1.08;;;8.40;99.90;;;;;;5032852;28;20409;-88
2023/04/11 02:37:43;;;;;;;19.60;1.55;;;8.40;99.90;;;;;;5051176;28;20500;-90
2023/04/11 02:40:12;;;;;;;19.38;1.55;;;8.40;99.90;;;;;;5066871;28;20024;-89
2023/04/11 02:42:41;;;;;;;18.08;1.55;;;8.50;99.90;;;;;;5066419;28;20056;-89
2023/04/11 02:45:07;;;;;;;27.58;2.65;;;8.40;99.90;;;;;;5066262;28;20106;-87
2023/04/11 02:47:33;;;;;;;23.75;1.90;;;8.40;99.90;;;;;;5031649;28;20035;-89
2023/04/11 02:50:03;;;;;;;28.85;2.65;;;8.50;99.90;;;;;;5069022;28;20048;-89
2023/04/11 02:52:38;;;;;;;33.85;2.95;;;8.50;99.90;;;;;;5037952;28;20032;-90
2023/04/11 02:55:04;;;;;;;16.42;1.25;;;8.50;99.90;;;;;;5030875;28;20127;-89
2023/04/11 02:57:30;;;;;;;28.95;2.22;;;8.60;99.90;;;;;;5029819;28;20132;-89
2023/04/11 02:59:56;;;;;;;24.38;1.90;;;8.60;99.90;;;;;;5084108;28;20028;-89
2023/04/11 03:02:28;;;;;;;16.90;1.35;;;8.60;99.90;;;;;;5064769;28;20041;-89
2023/04/11 03:04:54;;;;;;;17.83;1.13;;;8.50;99.90;;;;;;5030063;28;20420;-89
2023/04/11 03:07:20;;;;;;;18.85;1.67;;;8.50;99.90;;;;;;5029310;28;20037;-88
2023/04/11 03:09:46;;;;;;;22.35;1.73;;;8.70;99.90;;;;;;5033155;28;20032;-89
2023/04/11 03:12:11;;;;;;;19.45;1.90;;;8.60;99.90;;;;;;5032724;28;20021;-88
2023/04/11 03:14:49;;;;;;;17.48;1.50;;;8.50;99.90;;;;;;5033097;28;20094;-88
2023/04/11 03:17:14;;;;;;;18.95;2.15;;;8.40;99.90;;;;;;5036138;28;20028;-86
2023/04/11 03:19:40;;;;;;;21.05;1.20;;;8.40;99.90;;;;;;5047068;28;20032;-86
2023/04/11 03:22:06;;;;;;;19.10;1.13;;;8.40;99.90;;;;;;5035618;28;20029;-89
2023/04/11 03:24:32;;;;;;;24.67;1.85;;;8.40;99.90;;;;;;5033456;28;20078;-89
2023/04/11 03:26:57;;;;;;;19.60;1.30;;;8.40;99.90;;;;;;5048395;28;20154;-88
2023/04/11 03:29:23;;;;;;;13.55;1.17;;;8.50;99.90;;;;;;5049214;28;20047;-87
2023/04/11 03:32:08;;;;;;;19.83;1.35;;;8.50;99.90;;;;;;5045581;28;20028;-89
2023/04/11 03:34:36;;;;;;;19.33;1.73;;;8.50;99.90;;;;;;5027559;28;20040;-88
2023/04/11 03:37:04;;;;;;;19.17;1.40;;;8.40;99.90;;;;;;5052130;28;20229;-88
2023/04/11 03:39:32;;;;;;;25.75;2.63;;;8.40;99.90;;;;;;5035397;28;20020;-89
2023/04/11 03:41:58;;;;;;;22.95;1.52;;;8.40;99.90;;;;;;5051272;28;20468;-87
2023/04/11 03:44:25;;;;;;;19.65;1.65;;;8.40;99.90;;;;;;5044638;28;20044;-89
2023/04/11 03:46:51;;;;;;;16.23;1.58;;;8.40;99.90;;;;;;5034552;28;20061;-89
2023/04/11 03:49:17;;;;;;;19.42;1.30;;;8.40;99.90;;;;;;5051210;28;20461;-89
2023/04/11 03:51:47;;;;;;;25.77;2.50;;;8.40;99.90;;;;;;5049510;28;20033;-92
2023/04/11 03:54:13;;;;;;;14.07;1.42;;;8.30;99.90;;;;;;5030138;28;20021;-88
2023/04/11 03:56:40;;;;;;;16.20;1.48;;;8.30;99.90;;;;;;5031448;28;20032;-88
2023/04/11 03:59:10;;;;;;;17.73;1.17;;;8.20;99.90;;;;;;5032809;28;20454;-89
2023/04/11 04:01:49;;;;;;;14.63;1.27;;;8.20;99.90;;;;;;5049553;28;20152;-89
2023/04/11 04:04:16;;;;;;;18.30;1.40;;;8.10;99.90;;;;;;5028189;28;20072;-86
2023/04/11 04:06:46;;;;;;;;;;;8.10;99.90;;;;;;5034876;28;20515;-87
2023/04/11 04:09:12;;;;;;;16.40;1.17;;;8.20;99.90;;;;;;5034135;28;19947;-87
2023/04/11 04:11:46;;;;;;;19.75;1.45;;;8.20;99.90;;;;;;5034071;28;20550;-88
2023/04/11 04:14:13;;;;;;;11.82;1.25;;;8.30;99.90;;;;;;5026758;28;20021;-88
2023/04/11 04:16:39;;;;;;;14.68;0.90;;;8.30;99.90;;;;;;5047299;28;20031;-86
2023/04/11 04:19:05;;;;;;;11.05;1.23;;;8.20;99.90;;;;;;5047721;28;20021;-88
2023/04/11 04:21:31;;;;;;;12.82;1.30;;;8.20;99.90;;;;;;5034639;28;20393;-87
2023/04/11 04:24:02;;;;;;;10.20;0.70;;;8.20;99.90;;;;;;5032797;28;20021;-86
2023/04/11 04:26:51;;;;;;;15.63;0.98;;;8.20;99.90;;;;;;5045579;28;20481;-88
2023/04/11 04:29:38;;;;;;;8.73;0.50;;;8.20;99.90;;;;;;5035218;28;20016;-89
2023/04/11 04:32:11;;;;;;;10.25;0.85;;;8.20;99.90;;;;;;5062148;28;20021;-88
2023/04/11 04:34:48;;;;;;;10.10;0.45;;;8.20;99.90;;;;;;5050846;28;20025;-87
2023/04/11 04:37:21;;;;;;;11.30;0.57;;;8.20;99.90;;;;;;5031552;28;20037;-88
2023/04/11 04:39:53;;;;;;;9.38;0.50;;;8.20;99.90;;;;;;5031478;28;20450;-87
2023/04/11 04:42:27;;;;;;;10.20;0.80;;;8.20;99.90;;;;;;5030618;28;20058;-86
2023/04/11 04:44:57;;;;;;;12.20;1.23;;;8.20;99.90;;;;;;5025785;28;20737;-88
2023/04/11 04:47:30;;;;;;;8.32;0.75;;;8.20;99.90;;;;;;5050453;28;20357;-88
2023/04/11 04:49:56;;;;;;;3.92;0.40;;;8.20;99.90;;;;;;5029114;28;20032;-87
2023/04/11 04:52:26;;;;;;;7.20;0.30;;;8.20;99.90;;;;;;5027368;28;20024;-88
2023/04/11 04:54:56;;;;;;;7.32;0.57;;;8.20;99.90;;;;;;5069447;28;20434;-88
2023/04/11 04:57:24;;;;;;;6.50;0.70;;;8.20;99.90;;;;;;5049824;28;20554;-90
2023/04/11 04:59:50;;;;;;;7.68;0.63;;;8.20;99.90;;;;;;5043518;28;20028;-88
2023/04/11 05:02:16;;;;;;;14.05;0.50;;;8.20;99.90;;;;;;5049854;28;20032;-88
2023/04/11 05:04:43;;;;;;;11.23;0.95;;;8.20;99.90;;;;;;5043099;28;20098;-89
2023/04/11 05:07:12;;;;;;;9.27;0.40;;;8.20;99.90;;;;;;5028564;28;20104;-89
2023/04/11 05:09:39;;;;;;;10.63;0.40;;;8.30;99.90;;;;;;5049281;28;20025;-89
2023/04/11 05:12:14;;;;;;;9.60;0.50;;;8.30;99.90;;;;;;5031262;28;20036;-89
2023/04/11 05:14:41;;;;;;;14.15;0.70;;;8.20;99.90;;;;;;5026414;28;20495;-90
2023/04/11 05:17:07;;;;;;;10.90;0.75;;;8.30;99.90;;;;;;5033800;28;20376;-90
2023/04/11 05:19:33;;;;;;;10.05;0.60;;;8.30;99.90;;;;;;5041205;28;20032;-88
2023/04/11 05:21:59;;;;;;;8.75;0.50;;;8.30;99.90;;;;;;5031589;28;20171;-89
2023/04/11 05:24:25;;;;;;;8.18;0.70;;;8.30;99.90;;;;;;5063456;28;20111;-88
2023/04/11 05:26:51;;;;;;;8.40;0.65;;;8.30;99.90;;;;;;5032968;28;20029;-89
2023/04/11 05:29:19;;;;;;;8.35;0.88;;;8.30;99.90;;;;;;5033723;28;20020;-88
2023/04/11 05:31:46;;;;;;;14.02;0.95;;;8.40;99.90;;;;;;5031083;28;20458;-87
2023/04/11 05:34:11;;;;;;;6.53;0.40;;;8.30;99.90;;;;;;5031117;28;20100;-90
2023/04/11 05:36:37;;;;;;;6.22;0.50;;;8.40;99.90;;;;;;5029732;28;20064;-88
2023/04/11 05:39:03;;;;;;;6.70;0.60;;;8.40;99.90;;;;;;5028483;28;20017;-91
2023/04/11 05:41:29;;;;;;;10.20;0.40;;;8.40;99.90;;;;;;5028694;28;20048;-85
2023/04/11 05:43:55;;;;;;;10.05;0.55;;;8.30;99.90;;;;;;5008689;28;20107;-87
2023/04/11 05:46:20;;;;;;;6.45;0.47;;;8.30;99.90;;;;;;5016778;28;20218;-86
2023/04/11 05:48:46;;;;;;;6.72;0.63;;;8.20;99.90;;;;;;5021558;28;20029;-87
2023/04/11 05:51:12;;;;;;;7.82;0.40;;;8.10;99.90;;;;;;5022664;28;20024;-88
2023/04/11 05:53:38;;;;;;;6.88;0.50;;;8.10;99.90;;;;;;5021255;28;20091;-88
2023/04/11 05:56:05;;;;;;;11.13;0.80;;;8.10;99.90;;;;;;5020529;28;20606;-94
2023/04/11 05:58:32;;;;;;;9.75;0.50;;;8.10;99.90;;;;;;5021449;28;20063;-85
2023/04/11 06:01:01;;;;;;;7.53;0.40;;;8.10;99.90;;;;;;5021550;28;20135;-92
2023/04/11 06:03:27;;;;;;;8.90;0.50;;;8.10;99.90;;;;;;5039459;28;20044;-88
2023/04/11 06:05:53;;;;;;;9.57;0.63;;;8.10;99.90;;;;;;5036525;28;20036;-87
2023/04/11 06:08:20;;;;;;;8.65;0.50;;;8.20;99.90;;;;;;5038148;28;20051;-88
2023/04/11 06:10:46;;;;;;;7.03;0.40;;;8.10;99.90;;;;;;5041119;28;20496;-85
2023/04/11 06:13:42;;;;;;;8.52;0.60;;;8.20;99.90;;;;;;5062958;28;20024;-88
2023/04/11 06:16:08;;;;;;;6.95;0.30;;;8.20;99.90;;;;;;5025558;28;20838;-87
2023/04/11 06:18:34;;;;;;;5.97;0.40;;;8.20;99.90;;;;;;5023463;28;20033;-86
2023/04/11 06:21:00;;;;;;;3.63;0.25;;;8.20;99.90;;;;;;5023420;28;20838;-86
2023/04/11 06:23:25;;;;;;;8.30;0.50;;;8.20;99.90;;;;;;5039771;28;20040;-90
2023/04/11 06:25:51;;;;;;;8.85;0.30;;;8.30;99.90;;;;;;5037961;28;20045;-85
2023/04/11 06:28:17;;;;;;;5.63;0.30;;;8.30;99.90;;;;;;5038913;28;20037;-88
2023/04/11 06:30:43;;;;;;;7.05;0.40;;;8.40;99.90;;;;;;5038566;28;20035;-86
2023/04/11 06:33:08;;;;;;;4.75;0.30;;;8.50;99.90;;;;;;5036207;28;21435;-87
2023/04/11 06:35:34;;;;;;;7.47;0.30;;;8.60;99.90;;;;;;5037112;28;20125;-88
2023/04/11 06:38:00;;;;;;;7.72;0.45;;;8.60;99.90;;;;;;5037174;28;20400;-85
2023/04/11 06:40:26;;;;;;;6.05;0.40;;;8.70;99.90;;;;;;5021784;28;20021;-90
2023/04/11 06:42:51;;;;;;;4.75;0.30;;;8.70;99.90;;;;;;5038056;28;20236;-89
2023/04/11 06:45:17;;;;;;;5.95;0.60;;;8.80;99.90;;;;;;5022610;28;20481;-93
2023/04/11 06:47:48;;;;;;;6.00;0.40;;;8.90;99.90;;;;;;5039823;28;20538;-93
2023/04/11 06:50:21;;;;;;;7.22;1.05;;;8.90;99.90;;;;;;5022790;28;20045;-89
2023/04/11 06:52:47;;;;;;;5.22;0.50;;;9.00;99.90;;;;;;5021846;28;20087;-92
2023/04/11 06:55:14;;;;;;;10.40;0.60;;;9.10;99.90;;;;;;5021420;28;20454;-92
2023/04/11 06:57:41;;;;;;;10.43;0.50;;;9.10;99.90;;;;;;5020384;28;20095;-90
2023/04/11 07:00:08;;;;;;;7.30;1.02;;;9.20;99.90;;;;;;5020723;28;20048;-90
2023/04/11 07:02:38;;;;;;;6.30;0.50;;;9.20;99.90;;;;;;5055644;28;20124;-88
2023/04/11 07:05:04;;;;;;;6.75;0.38;;;9.50;99.90;;;;;;5036592;28;20035;-84
2023/04/11 07:07:30;;;;;;;9.73;0.93;;;9.50;99.90;;;;;;5035716;28;20063;-90
2023/04/11 07:09:56;;;;;;;11.23;1.35;;;9.50;99.90;;;;;;5022521;28;20511;-92
2023/04/11 07:12:22;;;;;;;8.52;0.60;;;9.50;99.90;;;;;;5020751;28;20036;-89
2023/04/11 07:14:47;;;;;;;7.20;0.40;;;9.60;99.90;;;;;;5018905;28;20042;-89
2023/04/11 07:17:13;;;;;;;7.75;0.57;;;9.70;99.90;;;;;;5034890;28;20029;-90
2023/04/11 07:19:39;;;;;;;9.80;0.50;;;9.80;99.90;;;;;;5020621;28;20052;-91
2023/04/11 07:22:05;;;;;;;10.77;0.50;;;9.70;99.90;;;;;;5028972;28;20048;-92
2023/04/11 07:24:30;;;;;;;9.15;0.50;;;9.80;99.90;;;;;;5020575;28;20028;-87
2023/04/11 07:27:00;;;;;;;8.50;0.68;;;9.80;99.90;;;;;;5020300;28;20563;-94
2023/04/11 07:29:27;;;;;;;11.82;0.85;;;10.00;99.90;;;;;;5037423;28;20068;-88
2023/04/11 07:31:53;;;;;;;9.27;0.60;;;9.90;99.90;;;;;;5037726;28;20059;-89
2023/04/11 07:34:19;;;;;;;8.57;0.45;;;9.90;99.90;;;;;;5036142;28;20147;-87
2023/04/11 07:36:45;;;;;;;9.63;1.30;;;10.00;99.90;;;;;;5035255;28;20043;-93
2023/04/11 07:39:12;;;;;;;10.18;0.70;;;10.30;99.90;;;;;;5019553;28;20044;-92
2023/04/11 07:41:38;;;;;;;5.57;0.45;;;10.60;99.90;;;;;;5037953;28;20045;-94
2023/04/11 07:44:06;;;;;;;7.95;0.60;;;9.90;99.90;;;;;;5055620;28;20039;-90
2023/04/11 07:46:32;;;;;;;7.00;0.50;;;10.00;99.90;;;;;;5026591;28;20090;-93
2023/04/11 07:48:58;;;;;;;7.95;0.40;;;10.10;99.90;;;;;;5036691;28;20032;-91
2023/04/11 07:51:25;;;;;;;6.45;0.40;;;10.20;99.90;;;;;;5036258;28;20389;-89
2023/04/11 07:53:50;;;;;;;5.63;0.43;;;10.30;99.90;;;;;;5009342;28;20049;-88
2023/04/11 07:56:16;;;;;;;9.30;0.47;;;10.30;99.90;;;;;;5018670;28;20389;-89
2023/04/11 07:58:42;;;;;;;7.70;0.50;;;10.40;99.90;;;;;;5019496;28;20048;-84
2023/04/11 08:01:22;;;;;;;7.30;0.50;;;10.40;99.90;;;;;;5035556;28;20251;-86
2023/04/11 08:03:48;;;;;;;7.70;0.50;;;10.50;99.90;;;;;;5019919;28;20059;-84
2023/04/11 08:06:14;;;;;;;11.35;1.42;;;10.20;99.90;;;;;;5035391;28;20036;-91
2023/04/11 08:08:39;;;;;;;6.50;0.50;;;10.10;99.90;;;;;;5036053;28;20143;-90
2023/04/11 08:11:06;;;;;;;8.13;0.50;;;10.10;99.90;;;;;;5053704;28;20036;-89
2023/04/11 08:13:31;;;;;;;8.43;0.70;;;10.10;99.90;;;;;;5020961;28;20034;-88
2023/04/11 08:15:57;;;;;;;5.75;0.40;;;10.20;99.90;;;;;;5031075;28;20140;-90
2023/04/11 08:18:23;;;;;;;8.00;0.50;;;10.30;99.90;;;;;;5050478;28;20016;-93
2023/04/11 08:20:48;;;;;;;7.38;0.60;;;10.20;99.90;;;;;;5030238;28;20458;-86
2023/04/11 08:23:14;;;;;;;10.63;0.70;;;10.10;99.90;;;;;;5029104;28;20029;-85
2023/04/11 08:25:40;;;;;;;8.68;0.57;;;10.50;99.90;;;;;;5030563;28;20370;-87
2023/04/11 08:28:08;;;;;;;9.40;0.50;;;10.80;99.90;;;;;;5033036;28;20033;-86
2023/04/11 08:30:34;;;;;;;6.82;0.40;;;10.60;99.90;;;;;;5017821;28;20075;-92
2023/04/11 08:33:00;;;;;;;6.78;0.80;;;10.30;99.90;;;;;;5035991;28;20033;-92
2023/04/11 08:35:26;;;;;;;8.23;0.45;;;10.10;99.90;;;;;;5019033;28;20055;-88
2023/04/11 08:37:54;;;;;;;10.80;0.63;;;10.10;99.90;;;;;;5018812;28;20040;-92
2023/04/11 08:40:20;;;;;;;7.32;0.50;;;10.10;99.90;;;;;;5035009;28;20039;-89
2023/04/11 08:42:46;;;;;;;10.10;0.88;;;10.10;99.90;;;;;;5019063;28;20040;-88
2023/04/11 08:45:12;;;;;;;8.45;0.60;;;10.40;99.90;;;;;;5019656;28;20029;-89
2023/04/11 08:47:38;;;;;;;6.88;0.85;;;10.00;99.90;;;;;;5019211;28;20051;-89
2023/04/11 08:50:05;;;;;;;9.68;1.17;;;9.80;99.90;;;;;;5020113;28;20032;-89
2023/04/11 08:52:32;;;;;;;8.40;0.50;;;10.10;99.90;;;;;;5027350;28;20179;-88
2023/04/11 08:54:58;;;;;;;9.20;1.15;;;10.10;99.90;;;;;;5019677;28;20169;-90
2023/04/11 08:57:30;;;;;;;7.43;0.40;;;10.10;99.90;;;;;;5026632;28;20610;-87
2023/04/11 09:00:07;;;;;;;7.10;0.60;;;9.90;99.90;;;;;;5018348;28;20032;-93
2023/04/11 09:02:32;;;;;;;7.05;0.40;;;9.70;99.90;;;;;;5021089;28;20099;-85
2023/04/11 09:04:58;;;;;;;6.00;0.40;;;9.60;99.90;;;;;;5018876;28;20032;-86
2023/04/11 09:07:24;;;;;;;5.53;0.40;;;9.40;99.90;;;;;;5019748;28;20059;-84
2023/04/11 09:09:52;;;;;;;4.68;0.30;;;9.70;99.90;;;;;;5019085;28;20550;-88
2023/04/11 09:12:26;;;;;;;5.50;0.40;;;10.30;99.90;;;;;;5019202;28;20192;-90
2023/04/11 09:14:52;;;;;;;6.10;0.40;;;10.30;99.90;;;;;;5018028;28;20625;-88
2023/04/11 09:17:18;;;;;;;6.63;0.40;;;10.80;99.90;;;;;;5020149;28;20032;-91
2023/04/11 09:19:43;;;;;;;4.20;0.50;;;10.90;99.90;;;;;;5018286;28;20040;-91
2023/04/11 09:22:09;;;;;;;6.03;0.32;;;10.90;99.90;;;;;;5021338;28;20044;-87
2023/04/11 09:24:36;;;;;;;8.02;0.40;;;10.90;99.90;;;;;;5023459;28;20455;-94
2023/04/11 09:27:15;;;;;;;6.50;0.30;;;11.20;99.90;;;;;;5023452;28;20036;-92
2023/04/11 09:29:47;;;;;;;5.15;0.40;;;11.20;99.90;;;;;;5037416;28;20392;-86
2023/04/11 09:32:27;;;;;;;8.15;0.50;;;10.90;99.90;;;;;;5057798;28;20460;-88
2023/04/11 09:35:06;;;;;;;;;;;10.70;99.90;;;;;;5023181;28;20487;-88
2023/04/11 09:37:48;;;;;;;8.82;0.50;;;10.80;99.90;;;;;;5072766;28;20670;-88
2023/04/11 09:40:17;;;;;;;9.95;0.63;;;10.60;99.90;;;;;;5020373;28;20083;-91
2023/04/11 09:42:44;;;;;;;7.03;0.40;;;10.70;99.90;;;;;;5021844;28;20123;-91
2023/04/11 09:45:18;;;;;;;5.63;0.60;;;10.70;99.90;;;;;;5022645;28;20472;-88
2023/04/11 09:47:45;;;;;;;6.00;0.55;;;11.00;99.90;;;;;;5024079;28;20049;-86
2023/04/11 09:50:11;;;;;;;5.57;0.47;;;10.90;99.90;;;;;;5023462;28;20055;-89
2023/04/11 09:52:40;;;;;;;5.50;0.30;;;10.80;99.90;;;;;;5023996;28;20029;-87
2023/04/11 09:55:07;;;;;;;3.15;0.30;;;11.50;99.90;;;;;;5022867;28;20074;-86
2023/04/11 09:57:34;;;;;;;4.60;0.20;;;12.10;99.90;;;;;;5022128;28;20102;-92
2023/04/11 10:00:14;;;;;;;4.28;0.57;;;11.80;99.90;;;;;;5022022;28;20036;-95
2023/04/11 10:02:40;;;;;;;4.93;0.30;;;12.10;99.90;;;;;;5040513;28;20044;-88
2023/04/11 10:05:07;;;;;;;4.78;0.40;;;12.20;99.90;;;;;;5023453;28;20036;-89
2023/04/11 10:07:43;;;;;;;4.80;0.50;;;12.60;99.90;;;;;;5021767;28;20173;-88
2023/04/11 10:10:14;;;;;;;6.45;0.40;;;12.10;99.90;;;;;;5039652;28;20025;-91
2023/04/11 10:12:40;;;;;;;5.22;0.40;;;11.60;99.90;;;;;;5021561;28;20036;-89
2023/04/11 10:15:09;;;;;;;9.60;0.45;;;11.60;99.90;;;;;;5040663;28;20104;-94
2023/04/11 10:17:35;;;;;;;9.90;0.60;;;10.90;99.90;;;;;;5023349;28;20143;-89
2023/04/11 10:20:21;;;;;;;6.22;0.40;;;10.80;99.90;;;;;;5057650;28;20056;-86
2023/04/11 10:22:50;;;;;;;7.97;0.60;;;11.30;99.90;;;;;;5038675;28;20416;-85
2023/04/11 10:25:17;;;;;;;3.80;0.45;;;10.90;99.90;;;;;;5022529;28;20046;-94
2023/04/11 10:27:59;;;;;;;7.50;0.40;;;10.80;99.90;;;;;;5027233;28;20060;-87
2023/04/11 10:30:40;;;;;;;4.63;0.30;;;11.20;99.90;;;;;;5046066;28;20831;-84
2023/04/11 10:33:16;;;;;;;9.60;0.40;;;11.20;99.90;;;;;;5039263;28;20040;-84
2023/04/11 10:36:04;;;;;;;6.13;0.32;;;11.60;99.90;;;;;;5057899;28;20033;-88
2023/04/11 10:38:39;;;;;;;3.63;0.40;;;11.40;99.90;;;;;;5022123;28;20071;-89
2023/04/11 10:41:32;;;;;;;5.75;0.40;;;11.50;99.90;;;;;;5040542;28;20052;-87
2023/04/11 10:44:23;;;;;;;7.22;0.50;;;11.10;99.90;;;;;;5039207;28;20044;-88
2023/04/11 10:46:55;;;;;;;5.78;0.43;;;11.30;99.90;;;;;;5037830;28;20454;-92
2023/04/11 10:49:38;;;;;;;3.67;0.30;;;12.10;99.90;;;;;;5040565;28;20397;-88
2023/04/11 10:52:21;;;;;;;2.58;0.20;;;12.10;99.90;;;;;;5037068;28;20021;-87
2023/04/11 10:54:53;;;;;;;3.00;0.30;;;12.40;99.90;;;;;;5020816;28;20066;-87
2023/04/11 10:57:21;;;;;;;4.80;0.40;;;12.60;99.90;;;;;;5020199;28;20117;-86
2023/04/11 10:59:49;;;;;;;5.68;0.30;;;13.10;99.90;;;;;;5033359;28;20055;-87
2023/04/11 11:02:16;;;;;;;6.10;0.50;;;12.70;99.90;;;;;;5021397;28;20040;-90
2023/04/11 11:04:41;;;;;;;6.47;0.80;;;12.70;99.90;;;;;;5022116;28;20119;-88
2023/04/11 11:07:13;;;;;;;4.00;0.30;;;12.50;99.90;;;;;;5036498;28;20032;-92
2023/04/11 11:09:38;;;;;;;3.95;0.30;;;13.20;99.90;;;;;;5010464;28;20057;-89
2023/04/11 11:12:09;;;;;;;4.38;0.30;;;12.50;99.90;;;;;;5023467;28;20048;-86
2023/04/11 11:14:36;;;;;;;3.05;0.20;;;12.40;99.90;;;;;;5018796;28;20021;-87
2023/04/11 11:17:02;;;;;;;4.30;0.25;;;12.90;99.90;;;;;;5036908;28;20552;-85
2023/04/11 11:19:28;;;;;;;3.47;0.30;;;12.60;99.90;;;;;;5020992;28;20086;-94
2023/04/11 11:21:54;;;;;;;4.25;0.20;;;12.10;99.90;;;;;;5059342;28;20149;-93
2023/04/11 11:24:26;;;;;;;3.50;0.28;;;12.00;99.90;;;;;;5023219;28;20024;-85
2023/04/11 11:26:53;;;;;;;4.38;0.30;;;11.80;99.90;;;;;;5028505;28;20488;-88
2023/04/11 11:29:34;;;;;;;4.30;0.20;;;11.80;99.90;;;;;;5022994;28;20039;-89
2023/04/11 11:32:02;;;;;;;5.25;0.30;;;11.60;99.90;;;;;;5021652;28;20036;-89
2023/04/11 11:34:33;;;;;;;4.20;0.43;;;11.70;99.90;;;;;;5038042;28;20090;-87
2023/04/11 11:37:03;;;;;;;4.95;0.65;;;12.40;99.90;;;;;;5020096;28;20044;-86
2023/04/11 11:39:30;;;;;;;2.95;0.22;;;12.60;99.90;;;;;;5019461;28;20036;-90
2023/04/11 11:41:56;;;;;;;3.33;0.30;;;13.10;99.90;;;;;;5021854;28;20048;-92
2023/04/11 11:44:24;;;;;;;3.35;0.30;;;13.10;99.90;;;;;;5038454;28;20036;-90
2023/04/11 11:47:16;;;;;;;3.42;0.20;;;12.80;99.90;;;;;;5035437;28;20514;-88
2023/04/11 11:49:53;;;;;;;7.35;0.30;;;13.10;99.90;;;;;;5020519;28;20028;-90
2023/04/11 11:52:32;;;;;;;5.05;0.35;;;12.80;99.90;;;;;;5039316;28;20037;-88
2023/04/11 11:54:57;;;;;;;5.22;0.20;;;12.90;99.90;;;;;;5024615;28;20040;-91
2023/04/11 11:57:23;;;;;;;3.95;0.20;;;12.60;99.90;;;;;;5054648;28;20067;-84
2023/04/11 11:59:56;;;;;;;5.90;0.50;;;12.80;99.90;;;;;;5019944;28;20384;-89
2023/04/11 12:02:24;;;;;;;3.08;0.25;;;12.90;99.90;;;;;;5054910;28;20048;-87
2023/04/11 12:04:56;;;;;;;6.88;0.30;;;13.00;99.90;;;;;;5020694;28;20037;-88
2023/04/11 12:07:22;;;;;;;7.78;0.60;;;12.90;99.90;;;;;;5037642;28;20036;-91
2023/04/11 12:09:48;;;;;;;5.15;0.50;;;12.60;99.90;;;;;;5037967;28;20148;-88
2023/04/11 12:12:16;;;;;;;3.03;0.20;;;12.80;99.90;;;;;;5058855;28;20060;-90
2023/04/11 12:14:52;;;;;;;4.30;0.25;;;12.70;99.90;;;;;;5024850;28;20048;-92
2023/04/11 12:17:18;;;;;;;13.50;0.32;;;12.60;99.90;;;;;;5054828;28;20033;-90
2023/04/11 12:19:43;;;;;;;6.20;0.40;;;12.90;99.90;;;;;;5021082;28;20535;-87
2023/04/11 12:22:09;;;;;;;2.50;0.20;;;12.30;99.90;;;;;;5037695;28;20493;-86
2023/04/11 12:24:35;;;;;;;6.70;0.30;;;12.50;99.90;;;;;;5020397;28;20473;-90
2023/04/11 12:27:00;;;;;;;5.10;0.30;;;12.90;99.90;;;;;;5020862;28;20174;-88
2023/04/11 12:29:26;;;;;;;5.72;0.40;;;13.00;99.90;;;;;;5055492;28;20024;-94
2023/04/11 12:31:51;;;;;;;3.15;0.20;;;12.80;99.90;;;;;;5036771;28;20366;-91
2023/04/11 12:34:17;;;;;;;2.75;0.30;;;13.10;99.90;;;;;;5020039;28;20514;-88
2023/04/11 12:36:43;;;;;;;3.05;0.20;;;12.60;99.90;;;;;;5017994;28;20029;-88
2023/04/11 12:39:08;;;;;;;7.45;0.40;;;12.70;99.90;;;;;;5021868;28;20122;-85
2023/04/11 12:41:34;;;;;;;3.33;0.30;;;12.80;99.90;;;;;;5021408;28;20508;-86
2023/04/11 12:44:01;;;;;;;3.15;0.30;;;13.00;99.90;;;;;;5029844;28;20423;-96
2023/04/11 12:46:26;;;;;;;2.03;0.10;;;13.00;99.90;;;;;;5038133;28;20035;-90
2023/04/11 12:48:52;;;;;;;3.17;0.17;;;13.10;99.90;;;;;;5023426;28;20699;-85
2023/04/11 12:51:18;;;;;;;3.83;0.20;;;12.90;99.90;;;;;;5019113;28;20359;-91
2023/04/11 12:53:44;;;;;;;3.90;0.30;;;13.20;99.90;;;;;;5036113;28;20033;-87